Celebrity Infinity — 9HJD9 — position and weather

sailwx.info

Track history (hours):
 
Tides and Currents Weather Stations Pressure Air Temp Water Temp Dewpoint Dewpoint Depression Visibility Wind Speed Wind Dir Waves Ship Positions

Celebrity Infinity

Last reported at 2017-Jan-16 19:17 UTC. Time now 2017-Jan-19 21:24 UTC.
Position S 54°53' W 068°16'.

Length 294 m; draft 8.3 m.

Type: Ship. MMSI: 249048000.

Date/timePositionNaut miles runAvg speedWind from/ knotsBaromVisibWave heightAir tempDewpointWater temp
2017-Jan-16 19:17S 54°53' W 068°16'5 0.8
2017-Jan-16 13:27S 54°49' W 068°18'0 0.0
2017-Jan-16 12:27S 54°49' W 068°18'0 0.0
2017-Jan-16 09:28S 54°49' W 068°18'  
2017-Jan-09 02:18S 34°46' W 057°32'912.3
2017-Jan-09 01:34S 34°44' W 057°43'1211.9
2017-Jan-09 00:33S 34°41' W 057°57'1414.0
2017-Jan-08 23:34S 34°37' W 058°13'8 1.1
2017-Jan-08 16:33S 34°35' W 058°22'0 0.0
2017-Jan-08 15:23S 34°35' W 058°22'0 0.0
2017-Jan-08 14:32S 34°35' W 058°22'0 0.0
2017-Jan-08 13:31S 34°35' W 058°22'0 0.0
2017-Jan-08 09:23S 34°35' W 058°22'0 0.0
2017-Jan-08 08:29S 34°35' W 058°22'0 0.0
2017-Jan-08 07:32S 34°35' W 058°22'0 0.0
2017-Jan-08 06:31S 34°35' W 058°22'0 0.0
2017-Jan-08 05:25S 34°35' W 058°22'0 0.0
2017-Jan-08 04:21S 34°35' W 058°22'0 0.0
2017-Jan-08 01:17S 34°35' W 058°22'0 0.0
2017-Jan-07 11:32S 34°35' W 058°22'7 1.3
2017-Jan-07 06:12S 34°37' W 058°14'812.9
2017-Jan-07 05:33S 34°39' W 058°04'1413.8
2017-Jan-07 04:33S 34°43' W 057°49'1313.2
2017-Jan-07 03:33S 34°46' W 057°33'  
Track history (hours):
 
Tides and Currents Weather Stations Pressure Air Temp Water Temp Dewpoint Dewpoint Depression Visibility Wind Speed Wind Dir Waves Ship Positions

Celebrity Infinity

Last reported at 2017-Jan-16 19:17 UTC. Time now 2017-Jan-19 21:24 UTC.
Position S 54°53' W 068°16'.

Length 294 m; draft 8.3 m.

Type: Ship. MMSI: 249048000.

Date/timePositionNaut miles runAvg speedWind from/ knotsBaromVisibWave heightAir tempDewpointWater temp
2017-Jan-16 19:17S 54°53' W 068°16'5 0.8
2017-Jan-16 13:27S 54°49' W 068°18'0 0.0
2017-Jan-16 12:27S 54°49' W 068°18'0 0.0
2017-Jan-16 09:28S 54°49' W 068°18'  
2017-Jan-09 02:18S 34°46' W 057°32'912.3
2017-Jan-09 01:34S 34°44' W 057°43'1211.9
2017-Jan-09 00:33S 34°41' W 057°57'1414.0
2017-Jan-08 23:34S 34°37' W 058°13'8 1.1
2017-Jan-08 16:33S 34°35' W 058°22'0 0.0
2017-Jan-08 15:23S 34°35' W 058°22'0 0.0
2017-Jan-08 14:32S 34°35' W 058°22'0 0.0
2017-Jan-08 13:31S 34°35' W 058°22'0 0.0
2017-Jan-08 09:23S 34°35' W 058°22'0 0.0
2017-Jan-08 08:29S 34°35' W 058°22'0 0.0
2017-Jan-08 07:32S 34°35' W 058°22'0 0.0
2017-Jan-08 06:31S 34°35' W 058°22'0 0.0
2017-Jan-08 05:25S 34°35' W 058°22'0 0.0
2017-Jan-08 04:21S 34°35' W 058°22'0 0.0
2017-Jan-08 01:17S 34°35' W 058°22'0 0.0
2017-Jan-07 11:32S 34°35' W 058°22'7 1.3
2017-Jan-07 06:12S 34°37' W 058°14'812.9
2017-Jan-07 05:33S 34°39' W 058°04'1413.8
2017-Jan-07 04:33S 34°43' W 057°49'1313.2
2017-Jan-07 03:33S 34°46' W 057°33'  

Dump ship's entire track history